Gluckstadt, Mississippi
Current Conditions -  °F | °C
As of 3:53 PM on Thursday 27 Nov 2014 (Local Time) from KHKS Reporting Station
Clear Clear  
Wind Chill: 45°   Ceiling: Unl
Heat Index: 48°   Visibility: 10mi
Dew Point: 29°   Wind: 7mph
Humidity: 48%   Direction: 340°NNW
Pressure: 30.46"   Gusts: NA
Location:  32.5032°N, 90.1424°W
Report Text: KHKS 272153Z 34006KT 10SM CLR 09/M02 A3046 RMK AO2 SLP310 T00891017
Loading
Personal Weather Stations






























Interactive Weather Map New forecast layout! Learn more

10-Day Weather Forecast

Advertisements
Track Severe Weather on mobile